createdAt,value
2023-05-23T00:00:17.309Z,33.88
2023-05-23T00:02:49.991Z,41.13
2023-05-23T00:05:22.573Z,36.47
2023-05-23T00:07:57.309Z,37.72
2023-05-23T00:10:29.784Z,36.55
2023-05-23T00:13:02.514Z,37.78
2023-05-23T00:15:34.780Z,41.83
2023-05-23T00:18:09.425Z,39.20
2023-05-23T00:20:42.993Z,35.80
2023-05-23T00:23:21.558Z,38.00
2023-05-23T00:25:54.445Z,38.40
2023-05-23T00:28:26.826Z,43.25
2023-05-23T00:30:59.022Z,40.67
2023-05-23T00:33:33.560Z,40.00
2023-05-23T00:36:06.589Z,43.28
2023-05-23T00:38:41.772Z,41.22
2023-05-23T00:41:14.129Z,43.00
2023-05-23T00:43:47.101Z,44.53
2023-05-23T00:46:19.416Z,40.30
2023-05-23T00:48:51.725Z,45.03
2023-05-23T00:51:24.494Z,50.15
2023-05-23T00:54:01.677Z,52.78
2023-05-23T00:56:34.212Z,50.38
2023-05-23T00:59:07.983Z,52.75
2023-05-23T01:01:41.367Z,49.60
2023-05-23T01:04:14.222Z,57.25
2023-05-23T01:06:47.304Z,54.55
2023-05-23T01:09:23.714Z,56.72
2023-05-23T01:12:07.717Z,58.50
2023-05-23T01:14:46.098Z,56.17
2023-05-23T01:17:25.637Z,59.97
2023-05-23T01:20:06.133Z,65.15
2023-05-23T01:22:55.783Z,55.42
2023-05-23T01:25:49.968Z,62.97
2023-05-23T01:28:28.404Z,54.53
2023-05-23T01:31:04.460Z,66.53
2023-05-23T01:33:38.272Z,59.67
2023-05-23T01:36:15.236Z,59.70
2023-05-23T01:38:47.478Z,62.03
2023-05-23T01:41:19.732Z,56.60
2023-05-23T01:43:54.800Z,62.72
2023-05-23T01:46:27.971Z,68.60
2023-05-23T01:49:01.258Z,66.95
2023-05-23T01:51:34.462Z,69.70
2023-05-23T01:54:07.577Z,66.93
2023-05-23T01:56:41.493Z,66.15
2023-05-23T01:59:16.477Z,70.45
2023-05-23T02:01:48.762Z,77.35
2023-05-23T02:04:21.732Z,70.35
2023-05-23T02:06:53.883Z,74.15
2023-05-23T02:09:26.072Z,70.32
2023-05-23T02:11:59.752Z,75.97
2023-05-23T02:14:34.621Z,75.00
2023-05-23T02:17:07.961Z,74.78
2023-05-23T02:19:40.292Z,74.00
2023-05-23T02:22:12.524Z,70.88
2023-05-23T02:24:44.719Z,74.00
2023-05-23T02:27:16.903Z,77.80
2023-05-23T02:29:51.674Z,79.30
2023-05-23T02:32:23.828Z,77.85
2023-05-23T02:34:57.413Z,77.70
2023-05-23T02:37:30.161Z,77.20
2023-05-23T02:40:02.407Z,83.55
2023-05-23T02:42:34.817Z,72.80
2023-05-23T02:45:10.800Z,81.05
2023-05-23T02:47:43.025Z,78.53
2023-05-23T02:50:15.312Z,80.55
2023-05-23T02:52:47.506Z,76.28
2023-05-23T02:55:19.754Z,74.50
2023-05-23T02:57:51.960Z,80.47
2023-05-23T03:00:28.640Z,75.90
2023-05-23T03:03:00.873Z,76.60
2023-05-23T03:05:33.165Z,75.18
2023-05-23T03:08:05.786Z,73.47
2023-05-23T03:10:38.109Z,72.82
2023-05-23T03:13:10.783Z,78.25
2023-05-23T03:15:46.646Z,76.80
2023-05-23T03:18:18.925Z,71.20
2023-05-23T03:20:51.279Z,72.07
2023-05-23T03:23:23.622Z,73.45
2023-05-23T03:25:56.079Z,78.00
2023-05-23T03:28:28.341Z,73.05
2023-05-23T03:31:03.183Z,69.80
2023-05-23T03:33:36.574Z,69.57
2023-05-23T03:36:10.835Z,73.82
2023-05-23T03:38:43.244Z,67.13
2023-05-23T03:41:15.604Z,66.95
2023-05-23T03:43:48.090Z,71.85
2023-05-23T03:46:23.194Z,70.40
2023-05-23T03:48:55.594Z,68.63
2023-05-23T03:51:28.635Z,68.95
2023-05-23T03:54:01.035Z,71.05
2023-05-23T03:56:33.468Z,68.60
2023-05-23T03:59:05.740Z,69.20
2023-05-23T04:01:40.729Z,71.78
2023-05-23T04:04:13.140Z,70.75
2023-05-23T04:06:45.572Z,69.95
2023-05-23T04:09:18.292Z,69.97
2023-05-23T04:11:50.741Z,70.10
2023-05-23T04:14:24.571Z,68.43
2023-05-23T04:17:01.327Z,62.17
2023-05-23T04:19:33.969Z,66.18
2023-05-23T04:22:06.386Z,69.10
2023-05-23T04:24:38.622Z,67.68
2023-05-23T04:27:10.879Z,67.32
2023-05-23T04:29:44.550Z,68.45
2023-05-23T04:32:23.277Z,67.28
2023-05-23T04:34:57.086Z,66.30
2023-05-23T04:37:29.428Z,64.05
2023-05-23T04:40:01.590Z,67.78
2023-05-23T04:42:33.971Z,66.78
2023-05-23T04:45:14.098Z,59.47
2023-05-23T04:47:56.699Z,69.70
2023-05-23T04:50:36.108Z,62.30
2023-05-23T04:53:17.424Z,59.85
2023-05-23T04:55:49.796Z,56.97
2023-05-23T04:58:22.038Z,62.55
2023-05-23T05:00:54.522Z,54.53
2023-05-23T05:03:29.287Z,57.30
2023-05-23T05:06:02.859Z,52.70
2023-05-23T05:08:42.468Z,55.50
2023-05-23T05:11:14.622Z,50.85
2023-05-23T05:13:46.882Z,53.35
2023-05-23T05:16:21.106Z,57.95
2023-05-23T05:18:56.034Z,58.67
2023-05-23T05:21:28.276Z,54.05
2023-05-23T05:24:00.370Z,65.55
2023-05-23T05:26:33.136Z,52.38
2023-05-23T05:29:05.293Z,54.72
2023-05-23T05:31:38.165Z,55.25
2023-05-23T05:34:16.166Z,59.75
2023-05-23T05:36:50.792Z,60.30
2023-05-23T05:39:25.278Z,60.65
2023-05-23T05:41:57.560Z,58.45
2023-05-23T05:44:29.674Z,58.55
2023-05-23T05:47:01.849Z,55.53
2023-05-23T05:49:47.514Z,59.38
2023-05-23T05:52:19.633Z,52.05
2023-05-23T05:54:51.818Z,53.90
2023-05-23T05:57:26.708Z,51.17
2023-05-23T05:59:58.920Z,51.53
2023-05-23T06:02:31.189Z,46.92
2023-05-23T06:05:08.186Z,45.38
2023-05-23T06:07:44.177Z,45.30
2023-05-23T06:10:16.499Z,50.33
2023-05-23T06:12:48.778Z,42.60
2023-05-23T06:15:20.980Z,41.58
2023-05-23T06:17:53.357Z,37.78
2023-05-23T06:20:28.896Z,36.47
2023-05-23T06:23:02.079Z,39.13
2023-05-23T06:25:34.256Z,33.45
2023-05-23T06:28:06.497Z,34.50
2023-05-23T06:30:39.385Z,32.25
2023-05-23T06:33:12.813Z,32.10
2023-05-23T06:35:47.570Z,28.45
2023-05-23T06:38:19.723Z,28.52
2023-05-23T06:40:51.849Z,26.13
2023-05-23T06:43:24.008Z,29.55
2023-05-23T06:45:56.345Z,26.10
2023-05-23T06:48:28.516Z,24.92
2023-05-23T06:51:03.265Z,22.92
2023-05-23T06:53:35.454Z,22.98
2023-05-23T06:56:07.737Z,25.60
2023-05-23T06:58:39.979Z,24.00
2023-05-23T07:01:12.378Z,24.88
2023-05-23T07:03:46.593Z,21.83
2023-05-23T07:06:21.328Z,24.48
2023-05-23T07:08:53.742Z,22.60
2023-05-23T07:11:35.787Z,24.08
2023-05-23T07:14:17.221Z,23.38
2023-05-23T07:16:58.774Z,22.23
2023-05-23T07:19:31.726Z,20.77
2023-05-23T07:22:06.609Z,21.75
2023-05-23T07:24:38.804Z,21.67
2023-05-23T07:27:18.660Z,21.52
2023-05-23T07:29:51.148Z,21.10
2023-05-23T07:32:23.248Z,18.95
2023-05-23T07:34:55.536Z,18.95
2023-05-23T07:37:30.395Z,19.20
2023-05-23T07:40:02.595Z,19.38
2023-05-23T07:42:37.747Z,15.45
2023-05-23T07:45:10.881Z,14.93
2023-05-23T07:47:43.167Z,17.75
2023-05-23T07:50:17.218Z,18.42
2023-05-23T07:52:52.353Z,17.65
2023-05-23T07:55:24.712Z,16.73
2023-05-23T07:57:56.955Z,16.70
2023-05-23T08:00:29.061Z,15.10
2023-05-23T08:03:01.406Z,15.07
2023-05-23T08:05:33.874Z,17.08
2023-05-23T08:08:08.754Z,15.85
2023-05-23T08:10:41.185Z,15.20
2023-05-23T08:13:13.525Z,16.83
2023-05-23T08:15:54.554Z,16.40
2023-05-23T08:18:32.944Z,15.85
2023-05-23T08:21:05.231Z,14.23
2023-05-23T08:23:40.123Z,13.85
2023-05-23T08:26:12.324Z,14.43
2023-05-23T08:28:44.425Z,15.50
2023-05-23T08:31:17.049Z,14.85
2023-05-23T08:33:49.329Z,16.02
2023-05-23T08:36:21.485Z,15.68
2023-05-23T08:38:59.180Z,14.02
2023-05-23T08:41:31.800Z,13.18
2023-05-23T08:44:04.019Z,14.75
2023-05-23T08:46:44.728Z,14.10
2023-05-23T08:49:18.614Z,14.85
2023-05-23T08:51:55.674Z,14.52
2023-05-23T08:54:30.600Z,13.57
2023-05-23T08:57:06.009Z,13.38
2023-05-23T08:59:39.740Z,13.85
2023-05-23T09:02:14.582Z,15.55
2023-05-23T09:04:47.017Z,12.40
2023-05-23T09:07:19.878Z,11.57
2023-05-23T09:09:57.241Z,13.40
2023-05-23T09:12:29.809Z,13.77
2023-05-23T09:15:02.019Z,11.68
2023-05-23T09:17:34.462Z,10.10
2023-05-23T09:20:19.671Z,11.07
2023-05-23T09:22:51.933Z,9.75
2023-05-23T09:25:27.052Z,9.27
2023-05-23T09:28:01.499Z,10.63
2023-05-23T09:30:35.023Z,10.65
2023-05-23T09:33:07.190Z,9.57
2023-05-23T09:35:44.802Z,9.60
2023-05-23T09:38:19.131Z,9.07
2023-05-23T09:40:56.661Z,9.05
2023-05-23T09:43:29.404Z,8.88
2023-05-23T09:46:01.967Z,8.55
2023-05-23T09:48:34.339Z,8.85
2023-05-23T09:51:07.700Z,8.88
2023-05-23T09:53:39.855Z,8.57
2023-05-23T09:56:16.903Z,8.65
2023-05-23T09:58:50.211Z,10.13
2023-05-23T10:01:25.006Z,10.13
2023-05-23T10:04:00.170Z,11.27
2023-05-23T10:06:38.269Z,11.00
2023-05-23T10:09:18.151Z,12.85
2023-05-23T10:12:32.509Z,10.95
2023-05-23T10:15:15.946Z,9.13
2023-05-23T10:18:02.394Z,9.13
2023-05-23T10:20:39.417Z,11.35
2023-05-23T10:23:13.472Z,11.25
2023-05-23T10:25:46.357Z,9.45
2023-05-23T10:28:19.948Z,10.50
2023-05-23T10:30:55.007Z,9.45
2023-05-23T10:33:31.806Z,10.68
2023-05-23T10:36:09.674Z,9.20
2023-05-23T10:38:47.497Z,8.23
2023-05-23T10:41:27.590Z,9.90
2023-05-23T10:44:07.474Z,9.15
2023-05-23T10:46:55.823Z,9.00
2023-05-23T10:49:41.593Z,7.85
2023-05-23T10:52:15.360Z,8.40
2023-05-23T10:54:49.462Z,8.38
2023-05-23T10:57:27.924Z,8.82
2023-05-23T11:00:00.181Z,8.32
2023-05-23T11:02:35.042Z,8.45
2023-05-23T11:05:23.506Z,8.93
2023-05-23T11:08:09.377Z,8.65
2023-05-23T11:10:53.286Z,8.73
2023-05-23T11:13:25.746Z,7.50
2023-05-23T11:15:57.996Z,7.97
2023-05-23T11:18:37.670Z,7.03
2023-05-23T11:21:10.584Z,7.93
2023-05-23T11:23:43.395Z,8.57
2023-05-23T11:26:30.261Z,7.85
2023-05-23T11:29:04.356Z,9.15
2023-05-23T11:31:38.384Z,7.10
2023-05-23T11:34:14.224Z,7.53
2023-05-23T11:36:47.074Z,5.90
2023-05-23T11:39:21.033Z,6.43
2023-05-23T11:42:02.178Z,6.75
2023-05-23T11:44:34.344Z,6.22
2023-05-23T11:47:08.028Z,6.75
2023-05-23T11:49:45.509Z,6.97
2023-05-23T11:52:17.703Z,5.93
2023-05-23T11:54:49.920Z,5.97
2023-05-23T11:57:22.068Z,5.63
2023-05-23T11:59:54.702Z,5.80
2023-05-23T12:02:28.853Z,6.88
2023-05-23T12:05:11.180Z,5.63
2023-05-23T12:07:43.690Z,5.85
2023-05-23T12:10:22.544Z,4.70
2023-05-23T12:12:55.647Z,5.10
2023-05-23T12:15:28.649Z,4.40
2023-05-23T12:18:00.998Z,5.18
2023-05-23T12:20:36.478Z,6.38
2023-05-23T12:23:08.601Z,5.40
2023-05-23T12:25:44.525Z,4.60
2023-05-23T12:28:16.695Z,5.65
2023-05-23T12:30:49.787Z,6.32
2023-05-23T12:33:22.072Z,5.80
2023-05-23T12:35:57.270Z,7.15
2023-05-23T12:38:29.438Z,6.88
2023-05-23T12:41:15.650Z,9.18
2023-05-23T12:43:52.407Z,5.53
2023-05-23T12:46:25.872Z,6.22
2023-05-23T12:48:58.006Z,7.90
2023-05-23T12:51:32.740Z,5.63
2023-05-23T12:54:05.098Z,7.15
2023-05-23T12:56:37.312Z,5.85
2023-05-23T12:59:09.606Z,4.57
2023-05-23T13:01:42.124Z,5.35
2023-05-23T13:04:14.439Z,4.55
2023-05-23T13:06:49.203Z,4.70
2023-05-23T13:09:21.419Z,7.05
2023-05-23T13:11:53.566Z,4.28
2023-05-23T13:14:26.093Z,5.03
2023-05-23T13:16:58.960Z,3.97
2023-05-23T13:19:31.212Z,4.03
2023-05-23T13:22:06.611Z,4.85
2023-05-23T13:24:39.136Z,4.65
2023-05-23T13:27:11.429Z,4.30
2023-05-23T13:29:43.612Z,4.70
2023-05-23T13:32:15.903Z,4.75
2023-05-23T13:34:48.078Z,5.30
2023-05-23T13:37:22.889Z,3.65
2023-05-23T13:39:55.094Z,4.88
2023-05-23T13:42:27.270Z,5.15
2023-05-23T13:44:59.469Z,4.35
2023-05-23T13:47:31.728Z,4.53
2023-05-23T13:50:04.268Z,4.43
2023-05-23T13:52:41.094Z,5.72
2023-05-23T13:55:15.230Z,4.22
2023-05-23T13:57:47.571Z,4.25
2023-05-23T14:00:20.535Z,4.97
2023-05-23T14:02:52.677Z,4.75
2023-05-23T14:05:24.943Z,7.25
2023-05-23T14:07:59.785Z,5.75
2023-05-23T14:10:33.656Z,5.30
2023-05-23T14:13:07.203Z,5.88
2023-05-23T14:15:39.784Z,5.20
2023-05-23T14:18:12.146Z,5.30
2023-05-23T14:20:44.366Z,5.75
2023-05-23T14:23:19.099Z,5.20
2023-05-23T14:25:51.222Z,5.93
2023-05-23T14:28:23.391Z,5.53
2023-05-23T14:30:56.137Z,6.00
2023-05-23T14:33:28.433Z,5.00
2023-05-23T14:36:01.537Z,12.02
2023-05-23T14:38:36.315Z,5.88
2023-05-23T14:41:08.572Z,5.75
2023-05-23T14:43:40.849Z,6.30
2023-05-23T14:46:14.142Z,6.00
2023-05-23T14:48:46.473Z,5.70
2023-05-23T14:51:34.720Z,7.07
2023-05-23T14:54:13.515Z,6.13
2023-05-23T14:56:45.748Z,9.40
2023-05-23T14:59:17.901Z,5.97
2023-05-23T15:01:50.172Z,6.75
2023-05-23T15:04:22.560Z,8.32
2023-05-23T15:06:54.848Z,7.40
2023-05-23T15:09:29.781Z,6.78
2023-05-23T15:12:01.987Z,6.88
2023-05-23T15:14:34.162Z,7.45
2023-05-23T15:17:08.307Z,8.15
2023-05-23T15:19:43.307Z,7.20
2023-05-23T15:22:33.723Z,7.25
2023-05-23T15:25:11.088Z,7.43
2023-05-23T15:27:45.079Z,7.32
2023-05-23T15:30:17.501Z,6.20
2023-05-23T15:32:50.235Z,7.32
2023-05-23T15:35:22.511Z,7.55
2023-05-23T15:37:54.693Z,7.53
2023-05-23T15:40:29.427Z,7.50
2023-05-23T15:43:01.822Z,7.13
2023-05-23T15:45:34.117Z,6.65
2023-05-23T15:48:06.381Z,6.22
2023-05-23T15:50:39.266Z,5.70
2023-05-23T15:53:11.626Z,7.10
2023-05-23T15:55:46.504Z,5.18
2023-05-23T15:58:18.653Z,5.60
2023-05-23T16:00:51.143Z,5.97
2023-05-23T16:03:23.483Z,6.85
2023-05-23T16:05:55.720Z,4.40
2023-05-23T16:08:27.881Z,7.10
2023-05-23T16:11:02.625Z,5.78
2023-05-23T16:13:34.793Z,6.85
2023-05-23T16:16:07.169Z,5.30
2023-05-23T16:18:39.460Z,4.68
2023-05-23T16:21:11.886Z,6.38
2023-05-23T16:23:44.114Z,4.38
2023-05-23T16:26:19.765Z,3.38
2023-05-23T16:28:54.361Z,3.63
2023-05-23T16:31:27.786Z,5.78
2023-05-23T16:34:00.304Z,3.08
2023-05-23T16:36:32.887Z,4.60
2023-05-23T16:39:05.233Z,4.90
2023-05-23T16:41:40.030Z,4.50
2023-05-23T16:44:12.285Z,3.90
2023-05-23T16:46:44.890Z,4.53
2023-05-23T16:49:17.403Z,3.70
2023-05-23T16:51:49.613Z,4.28
2023-05-23T16:54:21.788Z,5.13
2023-05-23T16:56:57.860Z,3.33
2023-05-23T16:59:30.250Z,5.13
2023-05-23T17:02:02.749Z,4.53
2023-05-23T17:04:35.333Z,2.88
2023-05-23T17:07:09.838Z,3.08
2023-05-23T17:09:42.068Z,4.00
2023-05-23T17:12:16.950Z,3.60
2023-05-23T17:14:49.350Z,2.63
2023-05-23T17:17:21.687Z,2.63
2023-05-23T17:19:54.985Z,2.30
2023-05-23T17:22:27.290Z,2.97
2023-05-23T17:25:01.456Z,2.42
2023-05-23T17:27:36.219Z,1.40
2023-05-23T17:30:09.884Z,2.55
2023-05-23T17:32:43.658Z,4.40
2023-05-23T17:35:16.101Z,1.98
2023-05-23T17:37:48.274Z,8.63
2023-05-23T17:40:20.837Z,3.95
2023-05-23T17:42:55.699Z,3.28
2023-05-23T17:45:28.169Z,3.75
2023-05-23T17:48:04.009Z,2.95
2023-05-23T17:50:36.812Z,5.18
2023-05-23T17:53:09.102Z,3.40
2023-05-23T17:55:41.418Z,3.40
2023-05-23T17:58:16.773Z,3.70
2023-05-23T18:00:49.192Z,4.45
2023-05-23T18:03:22.488Z,3.63
2023-05-23T18:05:54.791Z,4.28
2023-05-23T18:08:27.210Z,3.13
2023-05-23T18:11:02.674Z,3.22
2023-05-23T18:13:37.782Z,5.63
2023-05-23T18:16:09.966Z,3.13
2023-05-23T18:18:42.268Z,4.45
2023-05-23T18:21:18.060Z,4.30
2023-05-23T18:23:51.164Z,4.38
2023-05-23T18:26:26.454Z,3.78
2023-05-23T18:29:04.810Z,4.45
2023-05-23T18:31:40.218Z,3.30
2023-05-23T18:37:29.301Z,5.13
2023-05-23T18:40:01.733Z,4.85
2023-05-23T18:42:34.255Z,4.45
2023-05-23T18:45:10.775Z,4.85
2023-05-23T18:47:43.012Z,4.93
2023-05-23T18:50:15.415Z,6.30
2023-05-23T18:52:47.692Z,4.57
2023-05-23T18:55:20.499Z,4.30
2023-05-23T18:57:54.064Z,4.70
2023-05-23T19:00:28.878Z,5.55
2023-05-23T19:03:01.362Z,6.75
2023-05-23T19:05:33.686Z,5.70
2023-05-23T19:08:06.179Z,4.85
2023-05-23T19:10:38.425Z,4.95
2023-05-23T19:13:10.679Z,4.80
2023-05-23T19:15:50.494Z,5.32
2023-05-23T19:18:22.919Z,4.57
2023-05-23T19:20:56.760Z,4.40
2023-05-23T19:23:29.074Z,4.93
2023-05-23T19:26:01.371Z,5.35
2023-05-23T19:28:33.516Z,4.10
2023-05-23T19:31:08.356Z,5.22
2023-05-23T19:33:40.522Z,4.75
2023-05-23T19:36:12.867Z,4.60
2023-05-23T19:38:45.027Z,4.70
2023-05-23T19:41:19.513Z,3.53
2023-05-23T19:43:52.901Z,4.55
2023-05-23T19:46:29.208Z,5.75
2023-05-23T19:49:01.706Z,4.22
2023-05-23T19:51:34.173Z,5.45
2023-05-23T19:54:06.542Z,4.85
2023-05-23T19:56:40.159Z,4.13
2023-05-23T19:59:12.803Z,3.47
2023-05-23T20:01:47.606Z,4.10
2023-05-23T20:04:19.867Z,5.78
2023-05-23T20:06:52.448Z,5.80
2023-05-23T20:09:24.810Z,4.53
2023-05-23T20:11:57.138Z,3.67
2023-05-23T20:14:30.857Z,3.22
2023-05-23T20:17:05.992Z,3.13
2023-05-23T20:19:39.224Z,3.00
2023-05-23T20:22:11.706Z,3.53
2023-05-23T20:24:44.120Z,2.90
2023-05-23T20:27:16.875Z,2.35
2023-05-23T20:29:50.067Z,3.25
2023-05-23T20:32:24.875Z,3.38
2023-05-23T20:34:57.044Z,4.07
2023-05-23T20:37:29.289Z,2.58
2023-05-23T20:40:01.434Z,4.20
2023-05-23T20:42:36.606Z,3.88
2023-05-23T20:45:09.756Z,4.22
2023-05-23T20:47:45.121Z,3.13
2023-05-23T20:50:19.275Z,3.60
2023-05-23T20:52:51.924Z,3.00
2023-05-23T20:55:24.257Z,2.85
2023-05-23T20:57:56.412Z,4.43
2023-05-23T21:00:28.664Z,4.00
2023-05-23T21:03:03.753Z,4.03
2023-05-23T21:05:36.194Z,3.70
2023-05-23T21:08:08.507Z,5.15
2023-05-23T21:10:41.329Z,5.00
2023-05-23T21:13:13.737Z,3.75
2023-05-23T21:15:45.894Z,3.17
2023-05-23T21:18:20.978Z,3.75
2023-05-23T21:20:53.166Z,4.10
2023-05-23T21:23:25.363Z,5.68
2023-05-23T21:25:57.735Z,4.57
2023-05-23T21:28:29.949Z,3.05
2023-05-23T21:31:03.588Z,5.45
2023-05-23T21:33:38.476Z,4.35
2023-05-23T21:36:10.873Z,4.60
2023-05-23T21:38:43.063Z,3.42
2023-05-23T21:41:15.259Z,4.20
2023-05-23T21:43:47.403Z,3.25
2023-05-23T21:46:19.694Z,3.92
2023-05-23T21:48:54.397Z,3.03
2023-05-23T21:51:28.855Z,4.78
2023-05-23T21:54:01.342Z,4.35
2023-05-23T21:56:33.775Z,4.35
2023-05-23T21:59:05.931Z,2.92
2023-05-23T22:01:38.229Z,3.47
2023-05-23T22:04:13.175Z,3.97
2023-05-23T22:06:45.406Z,5.25
2023-05-23T22:09:18.548Z,4.63
2023-05-23T22:11:50.924Z,3.28
2023-05-23T22:14:23.180Z,3.92
2023-05-23T22:16:56.295Z,4.78
2023-05-23T22:19:31.129Z,8.30
2023-05-23T22:22:03.471Z,6.00
2023-05-23T22:24:36.099Z,4.80
2023-05-23T22:27:08.312Z,3.83
2023-05-23T22:29:40.654Z,63.47
2023-05-23T22:32:12.918Z,8.05
2023-05-23T22:34:49.011Z,4.65
2023-05-23T22:37:21.174Z,5.75
2023-05-23T22:39:53.415Z,4.75
2023-05-23T22:42:25.594Z,3.63
2023-05-23T22:44:57.864Z,4.43
2023-05-23T22:47:34.253Z,4.60
2023-05-23T22:50:10.301Z,5.53
2023-05-23T22:52:45.492Z,4.05
2023-05-23T22:55:18.083Z,6.38
2023-05-23T22:57:50.277Z,5.10
2023-05-23T23:00:22.539Z,3.78
2023-05-23T23:02:54.967Z,3.80
2023-05-23T23:05:29.811Z,5.00
2023-05-23T23:08:02.035Z,4.40
2023-05-23T23:10:34.211Z,6.25
2023-05-23T23:13:06.619Z,5.38
2023-05-23T23:15:40.385Z,4.88
2023-05-23T23:18:13.901Z,7.15
2023-05-23T23:20:48.707Z,5.18
2023-05-23T23:23:21.120Z,4.78
2023-05-23T23:25:53.386Z,4.10
2023-05-23T23:28:25.645Z,5.25
2023-05-23T23:30:57.835Z,7.30
2023-05-23T23:33:30.102Z,4.78
2023-05-23T23:36:05.646Z,4.30
2023-05-23T23:38:38.325Z,6.28
2023-05-23T23:41:11.082Z,4.95
2023-05-23T23:43:43.285Z,5.50
2023-05-23T23:46:15.638Z,3.28
2023-05-23T23:48:47.841Z,3.25
2023-05-23T23:51:22.584Z,4.60
2023-05-23T23:53:54.754Z,4.63
2023-05-23T23:56:26.963Z,5.70
2023-05-23T23:58:59.357Z,5.15
